Time;durP1;ratioP1;P1;durP2;ratioP2;P2;SDS_P1;SDS_P2;PMS_P1;PMS_P2;Temp;Humidity;BMP_temperature;BMP_pressure;BME280_temperature;BME280_humidity;BME280_pressure;Samples;Min_cycle;Max_cycle;Signal;HPM_P1;HPM_P2
2021/07/05 10:45:42;;;;;;;5.78;3.90;;;;;;;33.08;30.45;93191.47;5068607;23;20102;-81
2021/07/05 10:48:11;;;;;;;5.25;3.13;;;;;;;33.22;30.69;93183.97;5053792;28;20036;-81
2021/07/05 10:50:44;;;;;;;7.97;3.95;;;;;;;32.79;29.78;93185.47;5051766;28;20429;-81
2021/07/05 10:53:13;;;;;;;4.97;4.10;;;;;;;32.88;29.63;93182.81;5052520;28;20674;-82
2021/07/05 10:55:51;;;;;;;7.60;3.95;;;;;;;32.55;30.00;93184.31;5052792;28;20087;-81
2021/07/05 10:58:27;;;;;;;12.18;4.60;;;;;;;32.76;30.84;93191.81;5053548;28;20036;-82
2021/07/05 11:00:55;;;;;;;4.95;3.90;;;;;;;32.94;30.77;93194.69;5054324;28;20310;-81
2021/07/05 11:03:36;;;;;;;7.20;4.43;;;;;;;33.21;29.56;93190.66;5058875;28;20028;-81
2021/07/05 11:06:10;;;;;;;7.18;4.13;;;;;;;33.16;30.23;93191.22;5058064;28;20413;-82
2021/07/05 11:08:42;;;;;;;5.40;4.00;;;;;;;33.00;29.86;93190.16;5055322;28;20036;-81
2021/07/05 11:11:24;;;;;;;5.18;3.90;;;;;;;33.17;29.84;93190.03;5052535;28;20032;-81
2021/07/05 11:14:16;;;;;;;4.50;4.10;;;;;;;33.31;31.08;93187.53;5044171;28;20052;-81
2021/07/05 11:17:02;;;;;;;5.07;4.40;;;;;;;33.50;30.88;93180.94;5067461;28;20053;-81
2021/07/05 11:19:49;;;;;;;7.47;4.15;;;;;;;33.49;30.11;93181.38;5031176;28;20053;-81
2021/07/05 11:22:35;;;;;;;5.63;3.90;;;;;;;33.47;30.51;93183.81;5021715;28;20037;-83
2021/07/05 11:25:21;;;;;;;4.97;4.43;;;;;;;33.16;29.74;93170.09;5023476;28;20117;-82
2021/07/05 11:27:59;;;;;;;4.55;4.15;;;;;;;33.15;30.43;93175.97;5022774;28;20032;-81
2021/07/05 11:30:32;;;;;;;9.70;4.60;;;;;;;32.95;31.69;93173.56;5022705;28;20621;-80
2021/07/05 11:33:04;;;;;;;4.90;4.40;;;;;;;33.00;30.91;93160.06;5024731;28;20037;-80
2021/07/05 11:35:45;;;;;;;4.78;4.32;;;;;;;32.99;31.35;93174.19;5022976;28;20041;-80
2021/07/05 11:38:14;;;;;;;4.68;4.15;;;;;;;33.17;30.63;93176.31;5024636;28;20041;-81
2021/07/05 11:40:47;;;;;;;4.47;4.07;;;;;;;33.04;30.48;93166.16;5018934;28;20329;-81
2021/07/05 11:43:16;;;;;;;4.70;4.22;;;;;;;33.19;30.71;93168.41;5021627;28;20529;-81
2021/07/05 11:45:48;;;;;;;5.43;4.50;;;;;;;33.36;30.81;93167.00;5026084;28;20077;-81
2021/07/05 11:48:40;;;;;;;9.13;4.22;;;;;;;33.31;30.54;93164.84;5003752;28;20045;-82
2021/07/05 11:51:19;;;;;;;6.75;3.80;;;;;;;33.44;30.93;93163.53;5025258;28;20172;-82
2021/07/05 11:54:02;;;;;;;5.78;3.50;;;;;;;33.50;30.49;93156.28;5041057;28;20044;-81
2021/07/05 11:56:39;;;;;;;5.22;4.05;;;;;;;33.56;29.76;93152.94;5042690;28;20056;-82
2021/07/05 11:59:15;;;;;;;4.65;4.00;;;;;;;33.60;30.45;93156.31;5022867;28;20445;-81
2021/07/05 12:02:00;;;;;;;6.93;4.10;;;;;;;33.56;30.42;93164.69;5020054;28;20411;-81
2021/07/05 12:04:31;;;;;;;7.32;4.05;;;;;;;33.45;29.80;93167.06;5026669;28;20045;-81
2021/07/05 12:06:57;;;;;;;5.47;4.07;;;;;;;33.32;30.52;93160.91;5017873;28;20037;-80
2021/07/05 12:09:28;;;;;;;3.60;3.30;;;;;;;33.43;30.59;93151.06;5027427;28;20028;-81
2021/07/05 12:11:56;;;;;;;5.78;3.90;;;;;;;33.58;29.91;93158.72;5026219;28;20056;-81
2021/07/05 12:14:25;;;;;;;5.53;3.30;;;;;;;33.75;29.97;93160.81;5023150;28;20612;-82
2021/07/05 12:16:56;;;;;;;8.50;3.88;;;;;;;33.67;30.91;93158.78;5036670;28;20423;-81
2021/07/05 12:19:23;;;;;;;5.30;4.40;;;;;;;33.62;30.38;93153.91;5021285;28;20384;-81
2021/07/05 12:21:54;;;;;;;8.45;3.80;;;;;;;33.68;30.65;93158.34;5022997;28;20108;-80
2021/07/05 12:24:28;;;;;;;7.50;3.97;;;;;;;33.53;30.39;93157.34;5023670;28;20025;-81
2021/07/05 12:27:00;;;;;;;9.68;4.43;;;;;;;33.34;30.61;93166.69;5025882;28;20045;-81
2021/07/05 12:29:32;;;;;;;7.15;4.47;;;;;;;32.72;31.09;93163.06;5024177;28;20052;-80
2021/07/05 12:32:04;;;;;;;13.43;4.13;;;;;;;32.97;30.99;93171.91;5024241;28;20044;-81
2021/07/05 12:34:54;;;;;;;5.68;3.97;;;;;;;33.04;30.71;93166.16;5026305;28;20060;-80
2021/07/05 12:37:43;;;;;;;3.95;3.55;;;;;;;33.06;30.69;93161.03;5026745;28;20033;-81
2021/07/05 12:40:30;;;;;;;5.13;4.18;;;;;;;32.69;30.56;93142.84;5012971;28;20037;-80
2021/07/05 12:43:07;;;;;;;7.97;3.95;;;;;;;32.72;30.59;93150.13;5039598;28;20119;-80
2021/07/05 12:45:54;;;;;;;8.07;4.20;;;;;;;32.95;29.60;93157.91;5025326;28;20064;-78
2021/07/05 12:48:21;;;;;;;7.05;4.30;;;;;;;32.93;30.18;93162.31;5024687;28;20045;-78
2021/07/05 12:50:52;;;;;;;5.85;3.83;;;;;;;33.09;30.10;93160.13;5018604;28;20051;-80
2021/07/05 12:53:24;;;;;;;6.55;3.85;;;;;;;33.00;30.02;93162.81;5024844;28;20095;-82
2021/07/05 12:56:03;;;;;;;9.27;4.70;;;;;;;32.96;30.18;93156.69;5022398;28;20120;-79
2021/07/05 12:58:49;;;;;;;9.18;3.97;;;;;;;32.79;30.23;93158.13;5024320;28;20156;-80
2021/07/05 13:01:25;;;;;;;8.18;4.72;;;;;;;33.01;31.23;93164.34;5019570;28;20393;-81
2021/07/05 13:04:04;;;;;;;7.18;4.97;;;;;;;32.97;29.08;93152.75;5025740;28;20024;-80
2021/07/05 13:06:36;;;;;;;6.63;4.90;;;;;;;32.42;29.98;93161.69;5040120;28;20013;-80
2021/07/05 13:09:17;;;;;;;6.60;4.13;;;;;;;32.43;31.32;93164.00;5025041;28;20136;-79
2021/07/05 13:11:51;;;;;;;6.28;4.50;;;;;;;32.60;30.96;93150.91;5024342;28;20044;-80
2021/07/05 13:14:23;;;;;;;5.50;4.43;;;;;;;32.58;29.07;93164.28;5025536;28;20087;-80
2021/07/05 13:17:13;;;;;;;4.53;4.13;;;;;;;32.13;30.14;93164.63;5024567;28;20063;-80
2021/07/05 13:19:40;;;;;;;5.85;4.82;;;;;;;32.17;29.60;93160.56;5032649;28;20484;-79
2021/07/05 13:22:14;;;;;;;8.25;4.70;;;;;;;32.29;30.57;93169.97;5019010;28;20099;-80
2021/07/05 13:24:44;;;;;;;;;;;;;;;32.17;30.37;93174.22;5036541;28;20082;-79
2021/07/05 13:27:22;;;;;;;9.18;3.88;;;;;;;32.05;30.64;93166.81;5021571;28;20410;-80
2021/07/05 13:29:48;;;;;;;7.60;3.92;;;;;;;31.86;30.63;93172.50;5027735;28;20037;-78
2021/07/05 13:32:22;;;;;;;10.65;3.78;;;;;;;31.89;31.19;93179.81;5024535;28;20049;-78
2021/07/05 13:35:10;;;;;;;6.33;4.60;;;;;;;31.94;30.07;93174.56;5024752;28;20511;-80
2021/07/05 13:37:43;;;;;;;6.53;4.63;;;;;;;31.79;30.21;93171.53;5022412;28;20049;-80
2021/07/05 13:40:11;;;;;;;8.63;4.68;;;;;;;31.87;32.07;93185.72;5026236;28;20072;-79
2021/07/05 13:42:44;;;;;;;6.10;4.68;;;;;;;31.95;32.69;93167.16;5023940;28;20052;-79
2021/07/05 13:45:25;;;;;;;4.55;4.05;;;;;;;31.98;31.58;93183.41;5026326;28;20115;-79
2021/07/05 13:48:08;;;;;;;7.38;4.57;;;;;;;32.01;32.35;93179.81;5025640;28;20103;-82
2021/07/05 13:50:40;;;;;;;11.40;5.53;;;;;;;31.89;31.70;93175.13;5026826;28;20083;-80
2021/07/05 13:53:29;;;;;;;9.55;4.60;;;;;;;31.61;32.76;93162.34;5024642;28;20709;-80
2021/07/05 13:55:56;;;;;;;4.80;4.40;;;;;;;31.58;31.97;93169.44;5021494;28;20713;-80
2021/07/05 13:58:24;;;;;;;4.32;3.92;;;;;;;31.57;31.84;93167.16;5023047;28;20037;-81
2021/07/05 14:00:59;;;;;;;5.63;4.20;;;;;;;31.45;31.45;93173.34;5024007;28;20018;-81
2021/07/05 14:03:26;;;;;;;5.53;4.43;;;;;;;31.17;32.11;93177.69;5031169;28;20017;-80
2021/07/05 14:05:57;;;;;;;7.20;4.07;;;;;;;31.36;32.18;93165.81;5030789;28;20043;-78
2021/07/05 14:08:23;;;;;;;8.02;3.70;;;;;;;31.36;31.72;93161.13;5022300;28;20042;-81
2021/07/05 14:10:52;;;;;;;6.22;4.60;;;;;;;31.28;32.08;93165.25;5022602;28;20045;-80
2021/07/05 14:13:20;;;;;;;4.90;4.40;;;;;;;31.37;31.85;93175.53;5022621;28;20414;-79
2021/07/05 14:15:47;;;;;;;5.65;4.45;;;;;;;31.51;30.98;93171.59;5023223;28;20544;-80
2021/07/05 14:18:14;;;;;;;4.30;4.00;;;;;;;31.66;31.88;93178.97;5022745;28;20067;-80
2021/07/05 14:20:42;;;;;;;7.55;5.53;;;;;;;31.79;32.71;93174.25;5018148;28;20042;-80
2021/07/05 14:23:10;;;;;;;7.35;5.07;;;;;;;32.12;32.11;93177.53;5022359;28;20140;-80
2021/07/05 14:25:37;;;;;;;5.68;4.22;;;;;;;32.15;30.37;93182.13;5035149;28;20048;-80
2021/07/05 14:28:04;;;;;;;7.82;4.03;;;;;;;32.04;31.44;93175.44;5019628;28;22097;-81
2021/07/05 14:30:30;;;;;;;5.50;3.97;;;;;;;32.08;31.07;93176.84;5025074;28;20681;-80
2021/07/05 14:32:56;;;;;;;5.00;4.55;;;;;;;32.33;31.32;93180.75;5021054;28;20403;-80
2021/07/05 14:35:21;;;;;;;5.18;4.30;;;;;;;32.27;31.22;93193.47;5019866;28;20069;-81
2021/07/05 14:37:47;;;;;;;9.68;5.03;;;;;;;31.51;34.08;93224.25;5026651;28;20076;-76
2021/07/05 14:40:14;;;;;;;14.93;5.50;;;;;;;30.90;36.45;93232.56;5020310;28;20071;-80
2021/07/05 14:42:40;;;;;;;7.68;5.25;;;;;;;30.19;37.85;93228.91;5023473;28;20026;-80
2021/07/05 14:45:08;;;;;;;9.82;5.18;;;;;;;29.70;39.50;93247.13;5034517;28;20084;-80
2021/07/05 14:47:33;;;;;;;8.60;5.38;;;;;;;29.59;39.97;93241.16;5013061;28;20538;-80
2021/07/05 14:49:59;;;;;;;9.20;7.07;;;;;;;29.74;40.62;93252.50;5020188;28;20060;-81
2021/07/05 14:52:25;;;;;;;6.15;5.50;;;;;;;29.51;41.10;93242.50;5027157;28;20040;-79
2021/07/05 14:54:51;;;;;;;11.68;5.95;;;;;;;29.27;43.94;93242.53;5022181;28;20424;-79
2021/07/05 14:57:16;;;;;;;10.50;6.15;;;;;;;28.80;44.85;93241.16;5037599;28;20382;-79
2021/07/05 14:59:46;;;;;;;11.70;6.78;;;;;;;28.49;46.78;93221.50;5020592;28;20070;-80
2021/07/05 15:02:15;;;;;;;9.80;7.65;;;;;;;28.28;49.96;93225.34;5021320;28;20041;-80
2021/07/05 15:04:41;;;;;;;11.55;7.45;;;;;;;27.75;50.48;93233.53;5015652;28;20041;-83
2021/07/05 15:07:07;;;;;;;10.55;7.45;;;;;;;27.35;52.29;93232.50;5019234;28;20464;-83
2021/07/05 15:09:33;;;;;;;16.08;7.00;;;;;;;27.26;53.24;93226.81;5028271;28;20032;-82
2021/07/05 15:11:59;;;;;;;8.93;7.10;;;;;;;27.42;51.74;93221.53;5023145;28;20045;-82
2021/07/05 15:14:25;;;;;;;7.32;6.60;;;;;;;27.49;50.11;93216.06;5025045;28;20049;-82
2021/07/05 15:16:51;;;;;;;8.90;6.45;;;;;;;27.57;52.18;93195.78;5022962;28;20049;-81
2021/07/05 15:19:18;;;;;;;8.70;6.40;;;;;;;27.74;52.29;93213.00;5025044;28;20757;-81
2021/07/05 15:21:44;;;;;;;10.75;7.13;;;;;;;27.41;52.29;93203.75;5021343;28;20025;-81
2021/07/05 15:24:10;;;;;;;8.05;6.95;;;;;;;27.37;51.95;93205.72;5031465;28;20032;-81
2021/07/05 15:26:35;;;;;;;7.70;6.97;;;;;;;27.32;52.14;93200.78;5028024;28;20040;-81
2021/07/05 15:29:02;;;;;;;10.10;6.95;;;;;;;27.15;52.66;93208.72;5025369;28;20047;-80
2021/07/05 15:31:27;;;;;;;8.07;6.18;;;;;;;27.36;53.02;93212.34;5025206;28;20069;-80
2021/07/05 15:33:53;;;;;;;7.68;6.80;;;;;;;27.34;52.52;93217.38;5028700;28;20823;-80
2021/07/05 15:36:19;;;;;;;8.02;7.07;;;;;;;27.45;54.09;93226.16;5023256;28;20060;-81
2021/07/05 15:38:50;;;;;;;8.15;6.50;;;;;;;27.50;55.40;93209.47;5026414;28;20037;-80
2021/07/05 15:41:18;;;;;;;8.93;7.35;;;;;;;27.58;57.31;93219.03;5025303;28;20136;-80
2021/07/05 15:43:46;;;;;;;11.52;7.78;;;;;;;27.47;56.68;93210.22;5020410;28;20049;-80
2021/07/05 15:46:11;;;;;;;17.27;8.20;;;;;;;27.55;54.98;93219.84;5022938;28;20361;-80
2021/07/05 15:48:40;;;;;;;10.77;8.25;;;;;;;27.69;55.50;93225.06;5026189;28;20501;-81
2021/07/05 15:51:06;;;;;;;15.02;8.25;;;;;;;27.64;55.62;93205.75;5025831;28;20053;-80
2021/07/05 15:53:33;;;;;;;14.00;8.65;;;;;;;27.87;55.02;93225.56;5020384;28;20036;-80
2021/07/05 15:55:59;;;;;;;12.00;8.30;;;;;;;27.97;54.51;93232.78;5026049;28;20034;-80
2021/07/05 15:58:25;;;;;;;14.85;8.80;;;;;;;28.11;54.55;93229.09;5025538;28;20458;-80
2021/07/05 16:00:51;;;;;;;9.30;7.97;;;;;;;28.20;53.66;93242.19;5021233;28;20021;-81
2021/07/05 16:03:16;;;;;;;13.27;7.30;;;;;;;28.10;51.55;93240.38;5027011;28;20068;-81
2021/07/05 16:05:42;;;;;;;12.27;6.88;;;;;;;28.10;50.53;93248.53;5024744;28;20052;-80
2021/07/05 16:08:07;;;;;;;8.18;7.38;;;;;;;28.28;51.88;93259.91;5027634;28;20038;-80
2021/07/05 16:10:34;;;;;;;10.60;7.05;;;;;;;28.38;50.83;93248.09;5022174;28;20048;-80
2021/07/05 16:13:00;;;;;;;10.70;6.80;;;;;;;28.40;49.94;93254.63;5025393;28;20027;-80
2021/07/05 16:15:25;;;;;;;7.55;6.22;;;;;;;28.49;48.74;93269.66;5036026;28;20021;-80
2021/07/05 16:17:51;;;;;;;7.07;6.38;;;;;;;28.43;48.99;93277.50;5025016;28;20134;-81
2021/07/05 16:20:16;;;;;;;8.25;6.00;;;;;;;28.30;48.40;93284.69;5025781;28;20167;-81
2021/07/05 16:22:42;;;;;;;8.02;6.63;;;;;;;28.06;49.69;93269.50;5021854;28;20045;-80
2021/07/05 16:25:08;;;;;;;10.40;6.97;;;;;;;28.07;50.05;93276.50;5023215;28;20565;-80
2021/07/05 16:27:35;;;;;;;9.50;6.75;;;;;;;27.97;47.99;93289.06;5023767;28;20561;-81
2021/07/05 16:30:01;;;;;;;6.97;6.28;;;;;;;27.91;47.80;93285.25;5020224;28;20059;-81
2021/07/05 16:32:26;;;;;;;7.85;6.15;;;;;;;27.77;46.83;93280.81;5024502;28;20515;-81
2021/07/05 16:34:52;;;;;;;6.32;5.65;;;;;;;27.79;46.63;93283.13;5023847;28;20056;-81
2021/07/05 16:37:19;;;;;;;7.20;6.43;;;;;;;27.65;47.20;93281.38;5024114;28;20041;-81
2021/07/05 16:39:47;;;;;;;8.43;5.80;;;;;;;27.59;46.99;93280.28;5026164;28;20087;-81
2021/07/05 16:42:13;;;;;;;8.45;6.05;;;;;;;27.53;46.91;93281.91;5027615;28;20037;-80
2021/07/05 16:44:39;;;;;;;7.97;5.88;;;;;;;27.56;47.00;93281.84;5027577;28;20305;-81
2021/07/05 16:47:05;;;;;;;7.82;5.97;;;;;;;27.41;47.61;93285.16;5024694;28;20527;-80
2021/07/05 16:49:32;;;;;;;7.35;5.80;;;;;;;27.57;48.00;93307.03;5022644;28;20171;-80
2021/07/05 16:52:12;;;;;;;7.65;6.32;;;;;;;27.53;48.43;93312.53;5014285;28;20025;-80
2021/07/05 16:54:39;;;;;;;8.80;6.22;;;;;;;27.34;48.90;93321.25;5027300;28;20017;-81
2021/07/05 16:57:06;;;;;;;10.90;7.13;;;;;;;27.43;48.84;93324.25;5025055;28;20462;-80
2021/07/05 16:59:44;;;;;;;6.97;6.30;;;;;;;27.35;47.84;93325.53;5023931;28;20144;-81
2021/07/05 17:02:24;;;;;;;7.72;6.68;;;;;;;27.30;47.56;93322.47;5028272;28;20064;-81
2021/07/05 17:04:51;;;;;;;6.15;5.55;;;;;;;27.23;47.39;93338.81;5025906;28;20467;-81
2021/07/05 17:07:17;;;;;;;9.45;6.78;;;;;;;27.07;49.40;93342.84;5023609;28;20435;-80
2021/07/05 17:09:43;;;;;;;6.47;5.10;;;;;;;26.91;47.84;93331.81;5026246;28;20033;-80
2021/07/05 17:12:08;;;;;;;6.25;5.70;;;;;;;26.97;47.39;93343.75;5027540;28;20498;-80
2021/07/05 17:14:34;;;;;;;7.07;5.07;;;;;;;26.80;47.36;93352.00;5022476;28;20040;-79
2021/07/05 17:17:00;;;;;;;5.72;4.93;;;;;;;26.59;47.02;93355.66;5023365;28;20541;-81
2021/07/05 17:19:26;;;;;;;9.07;5.50;;;;;;;26.55;46.58;93341.38;5023641;28;20128;-80
2021/07/05 17:21:51;;;;;;;5.75;5.15;;;;;;;26.43;47.00;93347.31;5027139;28;20635;-81
2021/07/05 17:24:17;;;;;;;6.05;5.45;;;;;;;26.40;47.93;93342.66;5023879;28;20029;-80
2021/07/05 17:26:44;;;;;;;7.70;5.85;;;;;;;26.40;48.36;93343.44;5024775;28;20044;-81
2021/07/05 17:29:10;;;;;;;6.72;6.03;;;;;;;26.27;48.48;93345.88;5024257;28;20052;-80
2021/07/05 17:31:40;;;;;;;7.05;6.45;;;;;;;26.05;50.12;93332.81;5023545;28;20070;-80
2021/07/05 17:34:07;;;;;;;6.78;5.88;;;;;;;26.11;49.55;93353.69;5023938;28;20048;-80
2021/07/05 17:36:33;;;;;;;6.43;5.70;;;;;;;26.04;49.83;93356.44;5023793;28;20064;-81
2021/07/05 17:38:58;;;;;;;8.02;5.63;;;;;;;25.98;50.08;93366.16;5025108;28;20568;-81
2021/07/05 17:41:26;;;;;;;7.60;6.93;;;;;;;25.89;50.60;93352.28;5020727;28;20047;-82
2021/07/05 17:43:52;;;;;;;14.32;6.88;;;;;;;25.83;50.98;93361.97;5023392;28;20045;-81
2021/07/05 17:46:18;;;;;;;7.18;6.45;;;;;;;25.80;51.41;93358.09;5022057;28;20570;-80
2021/07/05 17:48:46;;;;;;;7.47;6.78;;;;;;;25.78;51.26;93367.78;5021007;28;20037;-81
2021/07/05 17:51:11;;;;;;;8.98;7.30;;;;;;;25.70;50.99;93356.25;5026054;28;20020;-81
2021/07/05 17:53:37;;;;;;;8.05;7.00;;;;;;;25.67;51.31;93358.94;5023127;28;20545;-80
2021/07/05 17:56:02;;;;;;;7.28;6.50;;;;;;;25.57;50.81;93359.75;5025331;28;20568;-81
2021/07/05 17:58:28;;;;;;;8.38;6.03;;;;;;;25.63;49.36;93366.31;5022997;28;20068;-80
2021/07/05 18:00:53;;;;;;;9.40;5.40;;;;;;;25.53;47.69;93367.09;5025778;28;20246;-80
2021/07/05 18:03:19;;;;;;;6.05;5.53;;;;;;;25.49;47.95;93388.75;5041154;28;20561;-79
2021/07/05 18:05:44;;;;;;;8.48;6.72;;;;;;;25.42;51.28;93416.59;5026667;28;20116;-80
2021/07/05 18:08:10;;;;;;;10.90;7.13;;;;;;;25.19;52.87;93418.97;5025403;28;20044;-80
2021/07/05 18:10:35;;;;;;;10.48;7.35;;;;;;;25.03;54.09;93442.94;5025238;28;20706;-80
2021/07/05 18:13:04;;;;;;;11.57;8.48;;;;;;;24.94;57.54;93445.25;5023644;28;20037;-80
2021/07/05 18:15:29;;;;;;;8.73;7.82;;;;;;;24.81;59.92;93430.56;5028960;28;20037;-81
2021/07/05 18:18:01;;;;;;;12.65;8.25;;;;;;;24.80;61.02;93437.91;5022454;28;20065;-80
2021/07/05 18:20:31;;;;;;;10.02;8.25;;;;;;;24.55;62.79;93421.69;5026464;28;20035;-83
2021/07/05 18:22:57;;;;;;;9.30;8.13;;;;;;;24.58;62.49;93450.63;5024311;28;20099;-82
2021/07/05 18:25:25;;;;;;;15.07;8.93;;;;;;;24.33;65.28;93449.06;5043507;28;20080;-80
2021/07/05 18:27:51;;;;;;;10.18;8.35;;;;;;;24.31;66.57;93438.63;5025101;28;20047;-82
2021/07/05 18:30:22;;;;;;;10.77;9.68;;;;;;;24.06;67.35;93433.16;5027523;28;20070;-83
2021/07/05 18:32:48;;;;;;;10.38;9.38;;;;;;;23.99;66.91;93435.06;5026181;28;20045;-82
2021/07/05 18:35:14;;;;;;;9.85;8.60;;;;;;;23.80;67.74;93448.88;5025625;28;20045;-81
2021/07/05 18:37:41;;;;;;;11.75;9.32;;;;;;;23.83;67.83;93443.50;5023801;28;20430;-81
2021/07/05 18:40:08;;;;;;;11.38;9.82;;;;;;;23.57;70.30;93441.81;5023515;28;20138;-81
2021/07/05 18:42:34;;;;;;;11.15;10.05;;;;;;;23.43;71.23;93451.75;5025197;28;20052;-81
2021/07/05 18:45:00;;;;;;;10.90;9.20;;;;;;;23.40;70.18;93447.88;5025967;28;20598;-81
2021/07/05 18:47:26;;;;;;;11.45;10.20;;;;;;;23.06;72.11;93460.78;5028783;28;20125;-82
2021/07/05 18:49:52;;;;;;;11.23;10.13;;;;;;;22.80;72.39;93421.31;5021596;28;20038;-84
2021/07/05 18:52:17;;;;;;;10.18;9.18;;;;;;;22.94;71.15;93457.59;5026270;28;20041;-83
2021/07/05 18:54:43;;;;;;;12.88;9.98;;;;;;;22.61;72.57;93461.16;5024151;28;20025;-83
2021/07/05 18:57:09;;;;;;;11.73;10.63;;;;;;;22.37;72.37;93424.78;5024629;28;20057;-82
2021/07/05 18:59:34;;;;;;;10.75;9.63;;;;;;;22.47;72.90;93461.78;5023962;28;20504;-83
2021/07/05 19:02:05;;;;;;;11.65;10.18;;;;;;;22.53;72.99;93464.94;5022971;28;20055;-83
2021/07/05 19:04:31;;;;;;;10.27;9.05;;;;;;;22.30;72.21;93452.41;5027243;28;20593;-83
2021/07/05 19:06:57;;;;;;;10.82;9.82;;;;;;;22.03;72.61;93450.97;5026820;28;20026;-84
2021/07/05 19:09:23;;;;;;;11.35;9.35;;;;;;;22.07;71.36;93448.31;5028998;28;20118;-82
2021/07/05 19:11:48;;;;;;;10.15;9.10;;;;;;;22.00;70.97;93457.84;5023706;28;20049;-82
2021/07/05 19:14:14;;;;;;;13.13;10.60;;;;;;;21.86;72.33;93460.34;5027915;28;20041;-82
2021/07/05 19:16:39;;;;;;;11.20;10.15;;;;;;;21.88;73.37;93455.41;5022040;28;20454;-83
2021/07/05 19:19:04;;;;;;;11.82;10.68;;;;;;;21.71;74.05;93441.72;5028150;28;20040;-82
2021/07/05 19:21:30;;;;;;;11.77;10.57;;;;;;;21.76;74.75;93471.75;5026397;28;20056;-82
2021/07/05 19:23:58;;;;;;;12.35;10.20;;;;;;;21.75;74.50;93475.59;5026275;28;20033;-82
2021/07/05 19:26:24;;;;;;;10.25;9.35;;;;;;;21.83;74.09;93474.56;5023483;28;20053;-82
2021/07/05 19:28:50;;;;;;;12.50;10.27;;;;;;;21.66;75.07;93450.88;5023630;28;20306;-85
2021/07/05 19:31:15;;;;;;;11.55;10.45;;;;;;;21.65;74.76;93443.22;5023132;28;20590;-85
2021/07/05 19:33:41;;;;;;;11.88;10.10;;;;;;;21.89;74.14;93480.38;5027090;28;20032;-87
2021/07/05 19:36:09;;;;;;;11.32;10.30;;;;;;;21.86;73.84;93454.97;5019794;28;20392;-88
2021/07/05 19:38:35;;;;;;;12.57;9.52;;;;;;;21.78;70.09;93421.09;5021501;28;20044;-83
2021/07/05 19:41:00;;;;;;;11.05;10.02;;;;;;;21.94;72.33;93456.63;5020104;28;20039;-83
2021/07/05 19:43:26;;;;;;;13.00;10.40;;;;;;;21.85;73.64;93466.09;5021905;28;20376;-82
2021/07/05 19:45:51;;;;;;;10.60;9.55;;;;;;;21.75;74.22;93464.81;5022463;28;20484;-82
2021/07/05 19:48:20;;;;;;;11.55;10.35;;;;;;;21.74;73.65;93463.31;5024250;28;20079;-89
2021/07/05 19:50:47;;;;;;;11.52;10.50;;;;;;;21.37;75.00;93457.81;5029914;28;20647;-84
2021/07/05 19:53:13;;;;;;;11.57;10.38;;;;;;;21.58;73.56;93476.94;5001685;28;20049;-85
2021/07/05 19:55:39;;;;;;;11.32;10.18;;;;;;;21.31;74.21;93448.50;5022300;28;20866;-85
2021/07/05 19:58:08;;;;;;;11.77;10.75;;;;;;;21.44;73.74;93457.16;5023343;28;20480;-83
2021/07/05 20:00:34;;;;;;;10.63;9.60;;;;;;;21.48;73.59;93453.38;5027266;28;20105;-85
2021/07/05 20:03:14;;;;;;;11.68;9.88;;;;;;;21.46;74.59;93473.69;5022696;28;20555;-86
2021/07/05 20:10:57;;;;;;;;;;;;;;;;;;;;;
2021/07/05 20:26:54;;;;;;;;;;;;;;;;;;;;;
2021/07/05 20:30:22;;;;;;;;;;;;;;;;;;;;;
2021/07/05 20:53:54;;;;;;;14.32;10.80;;;;;;;21.48;74.46;93492.91;4931699;22;27328599;-93
2021/07/05 21:00:28;;;;;;;;;;;;;;;;;;;;;
2021/07/05 21:03:28;;;;;;;;;;;;;;;;;;;;;
2021/07/05 21:06:14;;;;;;;;;;;;;;;;;;;;;
2021/07/05 21:09:14;;;;;;;;;;;;;;;;;;;;;
2021/07/05 21:15:21;;;;;;;10.07;9.07;;;;;;;20.98;73.45;93449.19;5751062;24;20849;-87
2021/07/05 21:18:12;;;;;;;10.70;9.63;;;;;;;20.83;73.85;93439.34;5747307;24;20762;-85
2021/07/05 21:20:43;;;;;;;10.50;9.60;;;;;;;20.77;73.50;93432.00;5839744;24;20543;-86
2021/07/05 21:23:19;;;;;;;11.80;10.68;;;;;;;20.90;73.97;93477.09;5905105;23;20019;-86
2021/07/05 21:26:03;;;;;;;11.85;10.70;;;;;;;20.83;74.24;93474.28;5923063;23;20128;-86
2021/07/05 21:28:51;;;;;;;;;;;;;;;20.75;74.30;93481.47;5969617;23;20364;-86
2021/07/05 21:31:18;;;;;;;10.40;9.32;;;;;;;20.52;75.11;93439.66;5954321;23;19914;-86
2021/07/05 21:33:55;;;;;;;11.38;10.15;;;;;;;20.48;74.38;93430.75;6074435;23;20009;-86
2021/07/05 21:36:25;;;;;;;12.50;11.00;;;;;;;20.75;74.67;93465.34;6045838;23;20374;-85
2021/07/05 21:39:04;;;;;;;11.93;10.73;;;;;;;20.55;75.04;93449.66;6060276;23;20033;-86
2021/07/05 21:41:32;;;;;;;11.00;10.00;;;;;;;20.53;74.56;93438.50;6025360;23;20022;-85
2021/07/05 21:44:01;;;;;;;13.18;11.93;;;;;;;20.39;75.98;93443.63;6176698;23;20020;-86
2021/07/05 21:46:27;;;;;;;11.02;9.93;;;;;;;20.43;75.12;93425.69;6138113;23;20013;-85
2021/07/05 21:48:57;;;;;;;14.43;11.52;;;;;;;20.61;75.56;93475.09;6162970;23;20000;-85
2021/07/05 21:51:25;;;;;;;12.18;10.90;;;;;;;20.52;75.60;93463.81;6166316;23;20112;-85
2021/07/05 21:53:50;;;;;;;12.75;10.70;;;;;;;20.36;74.73;93428.25;6147894;23;20020;-85
2021/07/05 21:56:18;;;;;;;12.18;10.85;;;;;;;20.33;74.56;93428.97;6141823;23;20021;-84
2021/07/05 21:58:47;;;;;;;13.45;12.05;;;;;;;20.45;75.09;93453.72;6110960;23;20068;-84
2021/07/05 22:01:13;;;;;;;15.20;12.48;;;;;;;20.28;75.85;93441.50;6097699;23;20193;-85
2021/07/05 22:03:43;;;;;;;15.73;13.02;;;;;;;20.25;76.33;93439.56;6107458;23;20653;-85
2021/07/05 22:06:10;;;;;;;13.13;11.82;;;;;;;20.28;75.34;93428.09;6190784;23;20028;-84
2021/07/05 22:08:36;;;;;;;13.00;10.95;;;;;;;20.37;75.78;93457.44;6171798;23;20009;-85
2021/07/05 22:11:03;;;;;;;13.68;12.32;;;;;;;20.30;76.17;93452.69;6173038;23;20082;-85
2021/07/05 22:13:30;;;;;;;12.35;11.05;;;;;;;20.22;75.79;93428.75;6202015;23;20020;-85
2021/07/05 22:16:03;;;;;;;12.85;10.70;;;;;;;20.14;76.14;93429.75;6126837;23;20008;-84
2021/07/05 22:18:29;;;;;;;13.75;11.88;;;;;;;20.35;76.02;93453.53;6135741;23;20013;-84
2021/07/05 22:21:01;;;;;;;12.55;11.35;;;;;;;20.20;75.53;93434.47;6177596;23;20023;-84
2021/07/05 22:23:26;;;;;;;12.65;11.50;;;;;;;20.13;75.90;93453.16;6104214;23;20021;-83
2021/07/05 22:25:52;;;;;;;13.65;12.27;;;;;;;20.44;76.99;93494.31;6106324;23;20337;-83
2021/07/05 22:28:19;;;;;;;14.40;12.70;;;;;;;20.36;77.30;93492.66;6123753;23;20140;-84
2021/07/05 22:30:46;;;;;;;14.00;12.55;;;;;;;20.32;77.69;93492.59;6164269;23;20336;-83
2021/07/05 22:33:14;;;;;;;17.40;12.35;;;;;;;20.27;77.60;93482.91;6210694;23;20004;-83
2021/07/05 22:35:40;;;;;;;14.75;13.32;;;;;;;20.18;77.52;93460.88;6154931;23;20043;-83
2021/07/05 22:38:06;;;;;;;13.25;12.00;;;;;;;20.12;76.74;93440.88;6120458;23;20341;-83
2021/07/05 22:40:32;;;;;;;14.25;12.48;;;;;;;20.12;76.23;93437.41;6131999;23;20079;-83
2021/07/05 22:43:00;;;;;;;14.55;11.88;;;;;;;20.21;76.35;93470.91;6139810;23;20447;-83
2021/07/05 22:45:26;;;;;;;17.45;12.77;;;;;;;19.94;77.48;93445.09;6200630;23;20004;-83
2021/07/05 22:48:01;;;;;;;14.55;12.23;;;;;;;20.03;77.42;93448.38;6110173;23;20044;-83
2021/07/05 22:50:27;;;;;;;14.60;13.10;;;;;;;20.01;77.72;93449.84;6094446;23;20102;-85
2021/07/05 22:52:52;;;;;;;13.88;12.57;;;;;;;20.17;76.68;93437.88;6167245;23;20169;-84
2021/07/05 22:55:23;;;;;;;9.85;8.95;;;;;;;20.30;72.91;93452.69;6148572;23;20021;-84
2021/07/05 22:57:49;;;;;;;9.75;8.75;;;;;;;20.66;69.47;93458.66;6156568;23;20015;-83
2021/07/05 23:00:28;;;;;;;11.82;8.23;;;;;;;21.14;67.55;93492.06;6146618;23;20072;-83
2021/07/05 23:03:03;;;;;;;8.93;8.13;;;;;;;20.98;66.70;93438.44;6181590;23;20017;-83
2021/07/05 23:05:36;;;;;;;8.68;7.82;;;;;;;21.11;65.82;93441.72;6184929;23;20490;-84
2021/07/05 23:08:11;;;;;;;9.20;8.13;;;;;;;21.55;65.38;93498.41;6105941;23;20414;-85
2021/07/05 23:10:37;;;;;;;;;;;;;;;21.65;64.83;93486.97;6156362;23;20180;-82
2021/07/05 23:13:10;;;;;;;8.60;7.80;;;;;;;21.59;64.28;93465.03;6147914;23;20554;-84
2021/07/05 23:15:37;;;;;;;9.60;7.38;;;;;;;21.72;63.88;93470.16;6142026;23;20088;-81
2021/07/05 23:18:06;;;;;;;7.72;7.03;;;;;;;21.53;63.25;93441.50;6001427;23;20121;-87
2021/07/05 23:20:41;;;;;;;8.15;7.45;;;;;;;21.71;63.29;93447.88;6191838;23;20020;-83
2021/07/05 23:23:07;;;;;;;7.53;6.82;;;;;;;21.63;63.20;93438.19;6200058;23;20016;-85
2021/07/05 23:25:39;;;;;;;12.82;7.13;;;;;;;21.72;62.10;93441.38;6143191;23;20253;-86